• Join FlightAware (Why Join?)
  • Login
  • US Flag 
05:45AM EDT


 

Airport Tracker/Info


-or-


 

Live Flight TrackerFlight Track Log ✈ UTY738 ✈ 25-Jul-2013 ✈ YPKA / KTA - YPPH / PER

Flight Track Log - Related Links

Times and Time Zones

All times are in EDT time to prevent confusion due to time zone crossing. See the UTY738 flight status page for this flight to view local times or setup timezone preferences in your user account.

Time Position Orientation Groundspeed Altitude Reporting Facility
EDT Latitude Longitude Course Direction KTS MPH feet Rate Location/Type
05:38AM -20.7151 116.7739 170° South 16,500  Level Aus ATC (Calculated)
05:39AM -20.7769 116.7854 169° South 16,500  Level Aus ATC (Calculated)
05:39AM -20.9005 116.8084 169° South 16,500  Level Aus ATC (Calculated)
05:40AM -20.8277 116.7949 170° South  Level FlightAware Approximate
05:40AM -20.9005 116.8084 169° South 16,500  Level Aus ATC (Calculated)
05:42AM -21.0736 116.8407 170° South  Level FlightAware Approximate
05:42AM -21.0858 116.8430 167° South 16,500  Level Aus ATC (Calculated)
05:43AM -21.1870 116.8673 170° South 368 423 16,600 1,260 Climbing Aus ATC (RADAR)
05:44AM -21.2989 116.8683 180° South 382 440 18,900 2,460 Climbing Aus ATC (RADAR)
05:44AM -21.3861 116.8610 184° South 401 461 21,000 2,220 Climbing Aus ATC (RADAR)
05:45AM -21.4531 116.8610 180° South 403 464 21,900 1,440 Climbing Aus ATC (RADAR)
05:46AM -21.5241 116.8592 181° South 421 484 22,700 1,680 Climbing Aus ATC (RADAR)
05:46AM -21.5959 116.8577 181° South 430 495 23,900 1,920 Climbing Aus ATC (RADAR)
05:47AM -21.6696 116.8540 183° South 437 503 25,000 1,800 Climbing Aus ATC (RADAR)
05:47AM -21.7639 116.8527 181° South 439 505 26,300 1,680 Climbing Aus ATC (RADAR)
05:48AM -21.8467 116.8517 181° South 441 507 27,400 1,680 Climbing Aus ATC (RADAR)
05:49AM -21.9209 116.8497 181° South 444 511 28,400 1,860 Climbing Aus ATC (RADAR)
05:49AM -22.0160 116.8460 182° South 441 507 29,900 1,740 Climbing Aus ATC (RADAR)
05:50AM -22.1400 116.8419 182° South 436 502 31,500 1,440 Climbing Aus ATC (RADAR)
05:51AM -22.2345 116.8398 181° South 441 507 32,500 1,380 Climbing Aus ATC (RADAR)
05:52AM -22.3073 116.8385 181° South 439 505 33,400 1,260 Climbing Aus ATC (RADAR)
05:52AM -22.3797 116.8369 181° South 437 503 34,000 660 Climbing Aus ATC (RADAR)
05:53AM -22.4525 116.8352 181° South 442 509 34,200 60 Climbing Aus ATC (RADAR)
05:53AM -22.5269 116.8323 182° South 448 516 34,100 -120 Descending Aus ATC (RADAR)
05:54AM -22.6211 116.8307 181° South 444 511 34,100  Level Aus ATC (RADAR)
05:55AM -22.7471 116.8279 181° South 446 513 34,100  Level Aus ATC (RADAR)
05:56AM -22.8404 116.8260 181° South 443 510 34,100  Level Aus ATC (RADAR)
05:57AM -22.9129 116.8244 181° South 441 507 34,100  Level Aus ATC (RADAR)
05:57AM -22.9863 116.8222 182° South 444 511 34,100  Level Aus ATC (RADAR)
05:58AM -23.0683 116.8206 181° South 439 505 34,100  Level Aus ATC (RADAR)
05:59AM -23.1932 116.8188 181° South 441 507 34,100  Level Aus ATC (RADAR)
05:59AM -23.2757 116.8163 182° South 440 506 34,100  Level Aus ATC (RADAR)
06:00AM -23.3484 116.8143 181° South 440 506 34,100  Level Aus ATC (RADAR)
06:01AM -23.4312 116.8125 181° South 440 506 34,100  Level Aus ATC (RADAR)
06:01AM -23.5031 116.8111 181° South 440 506 34,100  Level Aus ATC (RADAR)
06:02AM -23.5760 116.8103 181° South 441 507 34,100 60 Level Aus ATC (RADAR)
06:03AM -23.6592 116.8084 181° South 443 510 34,200 60 Climbing Aus ATC (RADAR)
06:03AM -23.7223 116.8069 181° South 445 512 34,200  Level Aus ATC (RADAR)
06:04AM -23.7957 116.8051 181° South 447 514 34,200  Level Aus ATC (RADAR)
06:04AM -23.8686 116.8031 181° South 445 512 34,200  Level Aus ATC (RADAR)
06:05AM -23.9527 116.8015 181° South 446 513 34,200  Level Aus ATC (RADAR)
06:05AM -24.0259 116.7998 181° South 447 514 34,200  Level Aus ATC (RADAR)
06:06AM -24.1201 116.7971 181° South 445 512 34,200 -60 Level Aus ATC (RADAR)
06:07AM -24.2452 116.7937 181° South 445 512 34,100 -60 Descending Aus ATC (RADAR)
06:08AM -24.3286 116.7912 182° South 445 512 34,100  Level Aus ATC (RADAR)
06:09AM -24.4556 116.7897 181° South 450 518 34,100  Level Aus ATC (RADAR)
06:10AM -24.5393 116.7871 182° South 448 516 34,100  Level Aus ATC (RADAR)
06:10AM -24.6133 116.7856 181° South 450 518 34,100  Level Aus ATC (RADAR)
06:11AM -24.6872 116.7837 181° South 450 518 34,100  Level Aus ATC (RADAR)
06:11AM -24.7607 116.7817 181° South 450 518 34,100  Level Aus ATC (RADAR)
06:12AM -24.8344 116.7792 182° South 450 518 34,100  Level Aus ATC (RADAR)
06:13AM -24.9297 116.7784 180° South 451 519 34,100  Level Aus ATC (RADAR)
06:13AM -25.0235 116.7749 182° South 447 514 34,100  Level Aus ATC (RADAR)
06:14AM -25.1467 116.7727 181° South 440 506 34,100  Level Aus ATC (RADAR)
06:15AM -25.2382 116.7700 182° South 436 502 34,100  Level Aus ATC (RADAR)
06:16AM -25.3098 116.7684 181° South 437 503 34,100 60 Level Aus ATC (RADAR)
06:17AM -25.4121 116.7668 181° South 437 503 34,200  Climbing Aus ATC (RADAR)
06:17AM -25.4833 116.7640 182° South 435 501 34,100 -120 Descending Aus ATC (RADAR)
06:18AM -25.6048 116.7610 181° South 433 498 34,100  Level Aus ATC (RADAR)
06:19AM -25.7246 116.7621 180° South 424 488 34,100  Level Aus ATC (RADAR)
06:20AM -25.7974 116.7542 186° South 398 458 34,100  Level Aus ATC (RADAR)
06:20AM -25.8607 116.7488 184° South 392 451 34,100  Level Aus ATC (RADAR)
06:21AM -25.9357 116.7498 179° South 397 457 34,100  Level Aus ATC (RADAR)
06:22AM -25.9912 116.7492 181° South 399 459 34,100  Level Aus ATC (RADAR)
06:25AM -26.3958 116.7401 181° South 34,000  Descending Aus ATC (Calculated)
06:27AM -26.6483 116.7344 181° South  Level FlightAware Approximate
06:27AM -26.6690 116.7333 181° South 34,000  Level Aus ATC (Calculated)
06:28AM -26.8170 116.7296 181° South 34,000  Level Aus ATC (Calculated)
06:29AM -26.4732 116.7416 North  Level FlightAware Approximate
06:30AM -26.6559 116.7341 North  Level FlightAware Approximate
06:30AM -27.0112 116.7247 182° South 34,000  Level Aus ATC (Calculated)
06:30AM -27.0112 116.7247 182° South 34,000  Level Aus ATC (Calculated)
06:32AM -27.1860 116.6991 181° South  Level Estimated
06:33AM -27.3181 116.7170 181° South  Level FlightAware Approximate
06:34AM -27.4487 116.7137 181° South  Level FlightAware Approximate
06:34AM -27.4319 116.7141 182° South 34,000  Level Aus ATC (Calculated)
06:35AM -27.5371 116.7115 182° South 34,000  Level Aus ATC (Calculated)
06:37AM -27.7525 116.7060 181° South  Level FlightAware Approximate
06:37AM -27.7604 116.7024 181° South 465 535 34,100  Level Aus ATC (RADAR)
06:38AM -27.8340 116.6958 185° South 406 467 34,100  Level Aus ATC (RADAR)
06:38AM -27.8902 116.6938 182° South 405 466 34,100  Level Aus ATC (RADAR)
06:39AM -27.9558 116.6917 182° South 404 465 34,100  Level Aus ATC (RADAR)
06:40AM -28.0208 116.6891 182° South 401 461 34,100  Level Aus ATC (RADAR)
06:40AM -28.0766 116.6869 182° South 400 460 34,100  Level Aus ATC (RADAR)
06:41AM -28.1400 116.6788 186° South 397 457 34,100  Level Aus ATC (RADAR)
06:41AM -28.2055 116.6783 180° South 401 461 34,100  Level Aus ATC (RADAR)
06:42AM -28.2619 116.6792 179° South 397 457 34,100  Level Aus ATC (RADAR)
06:42AM -28.3270 116.6772 182° South 398 458 34,100  Level Aus ATC (RADAR)
06:43AM -28.4021 116.6766 180° South 400 460 34,100  Level Aus ATC (RADAR)
06:44AM -28.4595 116.6792 178° South 408 470 34,100  Level Aus ATC (RADAR)
06:44AM -28.5245 116.6757 183° South 404 465 34,100  Level Aus ATC (RADAR)
06:45AM -28.5804 116.6741 181° South 402 463 34,100  Level Aus ATC (RADAR)
06:45AM -28.6459 116.6723 181° South 397 457 34,100  Level Aus ATC (RADAR)
06:46AM -28.7116 116.6715 181° South 397 457 34,100  Level Aus ATC (RADAR)
06:46AM -28.7781 116.6727 179° South 404 465 34,100  Level Aus ATC (RADAR)
06:47AM -28.8340 116.6689 183° South 401 461 34,100  Level Aus ATC (RADAR)
06:47AM -28.8993 116.6636 184° South 402 463 34,100 -600 Level Aus ATC (RADAR)
06:48AM -28.9851 116.6688 177° South 403 464 33,300 -960 Descending Aus ATC (RADAR)
06:49AM -29.0411 116.6664 182° South 397 457 32,900 -960 Descending Aus ATC (RADAR)
06:49AM -29.1063 116.6642 182° South 398 458 32,300 -960 Descending Aus ATC (RADAR)
06:50AM -29.1715 116.6618 182° South 399 459 31,800 -900 Descending Aus ATC (RADAR)
06:50AM -29.2371 116.6629 179° South 402 463 31,300 -960 Descending Aus ATC (RADAR)
06:51AM -29.3021 116.6582 184° South 403 464 30,700 -1,080 Descending Aus ATC (RADAR)
06:52AM -29.3756 116.6577 180° South 392 451 30,000 -1,020 Descending Aus ATC (RADAR)
06:53AM -29.4661 116.6249 198° South 320 368 29,000 -600 Descending Aus ATC (RADAR)
06:54AM -29.4948 116.5575 244° Southwest 259 298 29,000  Level Aus ATC (RADAR)
06:55AM -29.5218 116.4746 249° West 270 311 29,000  Level Aus ATC (RADAR)
06:55AM -29.5399 116.4205 249° West 265 305 29,000  Level Aus ATC (RADAR)
06:56AM -29.5554 116.3731 249° West 264 304 29,000  Level Aus ATC (RADAR)
06:56AM -29.5712 116.3243 250° West 272 313 29,000  Level Aus ATC (RADAR)
06:57AM -29.5874 116.2789 248° West 263 303 29,000  Level Aus ATC (RADAR)
06:57AM -29.6014 116.2389 248° West 266 306 29,000  Level Aus ATC (RADAR)
06:58AM -29.6233 116.1937 241° Southwest 283 326 29,000  Level Aus ATC (RADAR)
06:59AM -29.6938 116.1560 205° Southwest 353 406 29,000  Level Aus ATC (RADAR)
06:59AM -29.7591 116.1640 174° South 392 451 29,000  Level Aus ATC (RADAR)
07:00AM -29.8413 116.2224 148° Southeast 430 495 29,000  Level Aus ATC (RADAR)
07:01AM -29.9400 116.3355 135° Southeast 479 551 29,000  Level Aus ATC (RADAR)
07:02AM -30.0057 116.4078 136° Southeast 481 554 29,000  Level Aus ATC (RADAR)
07:02AM -30.0630 116.4706 137° Southeast 477 549 29,000  Level Aus ATC (RADAR)
07:03AM -30.1203 116.5335 136° Southeast 477 549 29,000  Level Aus ATC (RADAR)
07:04AM -30.1848 116.5834 146° Southeast 487 560 29,000  Level Aus ATC (RADAR)
07:04AM -30.2508 116.5974 170° South 436 502 29,000  Level Aus ATC (RADAR)
07:05AM -30.3360 116.5830 188° South 373 429 29,000  Level Aus ATC (RADAR)
07:06AM -30.4295 116.5668 188° South 369 425 29,000  Level Aus ATC (RADAR)
07:07AM -30.4943 116.5377 201° Southwest 326 375 29,000  Level Aus ATC (RADAR)
07:07AM -30.5307 116.4985 223° Southwest 305 351 29,000  Level Aus ATC (RADAR)
07:08AM -30.5682 116.4614 221° Southwest 301 346 29,000  Level Aus ATC (RADAR)
07:08AM -30.6002 116.4292 221° Southwest 302 348 29,000  Level Aus ATC (RADAR)
07:09AM -30.6438 116.3860 220° Southwest 306 352 29,000  Level Aus ATC (RADAR)
07:10AM -30.6816 116.3485 220° Southwest 305 351 29,000  Level Aus ATC (RADAR)
07:11AM -30.7634 116.2890 212° Southwest 344 396 29,000  Level Aus ATC (RADAR)
07:11AM -30.8294 116.2993 172° South 398 458 29,000  Level Aus ATC (RADAR)
07:12AM -30.8848 116.3430 146° Southeast 440 506 29,000  Level Aus ATC (RADAR)
07:12AM -30.9302 116.4270 122° Southeast 490 564 29,000  Level Aus ATC (RADAR)
07:13AM -30.9701 116.5301 114° Southeast 507 583 29,000  Level Aus ATC (RADAR)
07:14AM -31.0263 116.5985 134° Southeast 497 572 29,000  Level Aus ATC (RADAR)
07:14AM -31.0926 116.6424 150° Southeast 475 547 29,000  Level Aus ATC (RADAR)
07:15AM -31.1736 116.6338 185° South 394 453 29,000  Level Aus ATC (RADAR)
07:16AM -31.2344 116.5636 225° Southwest 298 343 29,000 -660 Level Aus ATC (RADAR)
07:17AM -31.2696 116.5141 230° Southwest 295 339 27,900 -2,640 Descending Aus ATC (RADAR)
07:17AM -31.3131 116.4749 218° Southwest 331 381 25,700 -2,700 Descending Aus ATC (RADAR)
07:18AM -31.3570 116.4383 215° Southwest 327 376 24,800 -1,980 Descending Aus ATC (RADAR)
07:18AM -31.3925 116.4073 217° Southwest 317 365 23,600 -2,220 Descending Aus ATC (RADAR)
07:19AM -31.4459 116.3603 217° Southwest 317 365 22,100 -1,920 Descending Aus ATC (RADAR)
07:20AM -31.5133 116.3008 217° Southwest 332 382 20,500 -1,680 Descending Aus ATC (RADAR)
07:20AM -31.5562 116.2638 216° Southwest 325 374 19,600 -1,800 Descending Aus ATC (RADAR)
07:21AM -31.5918 116.2324 217° Southwest 318 366 18,600 -1,860 Descending Aus ATC (RADAR)
07:22AM -31.6326 116.1955 218° Southwest 313 360 17,600 -1,800 Descending Aus ATC (RADAR)
07:22AM -31.6713 116.1575 220° Southwest 307 353 16,500 -1,980 Descending Aus ATC (RADAR)
07:23AM -31.7045 116.1257 219° Southwest 305 351 15,500 -1,920 Descending Aus ATC (RADAR)
07:23AM -31.7499 116.0849 217° Southwest 303 349 14,300 -1,800 Descending Aus ATC (RADAR)
07:24AM -31.8006 116.0683 196° South 322 371 13,300 -1,620 Descending Aus ATC (RADAR)
07:25AM -31.8684 116.0789 172° South 337 388 12,200 -1,800 Descending Aus ATC (RADAR)
07:26AM -31.9526 116.1225 156° South 334 384 10,200 -2,040 Descending Aus ATC (RADAR)
07:26AM -32.0184 116.1108 189° South 323 372 8,700 -1,620 Descending Aus ATC (RADAR)
07:27AM -32.0654 116.0891 201° Southwest 308 354 8,100 -1,200 Descending Aus ATC (RADAR)
07:28AM -32.1110 116.0688 201° Southwest 300 345 7,300 -1,320 Descending Aus ATC (RADAR)
07:28AM -32.1491 116.0512 201° Southwest 294 338 6,700 -1,440 Descending Aus ATC (RADAR)
07:29AM -32.1861 116.0260 210° Southwest 264 304 5,800 -1,560 Descending Aus ATC (RADAR)
07:29AM -32.1889 115.9834 266° West 220 253 4,900 -1,620 Descending Aus ATC (RADAR)
07:30AM -32.1802 115.9496 287° West 208 239 4,100 -960 Descending Aus ATC (RADAR)
07:30AM -32.1674 115.9100 291° West 185 213 3,800 -600 Descending Aus ATC (RADAR)
07:31AM -32.1450 115.9071 354° North 166 191 3,400 -480 Descending Aus ATC (RADAR)
07:32AM -32.1164 115.9133 10° North 158 182 3,300 -600 Descending Aus ATC (RADAR)
07:32AM -32.0905 115.9211 14° North 165 190 2,700 -960 Descending Aus ATC (RADAR)
07:33AM -32.0608 115.9302 14° North 165 190 2,100 -900 Descending Aus ATC (RADAR)
07:34AM -32.0208 115.9418 14° North 138 159 1,300 -780 Descending Aus ATC (RADAR)
07:34AM -31.9971 115.9486 14° North 134 154 900 -720 Descending Aus ATC (RADAR)
07:35AM -31.9789 115.9537 13° North 134 154 500 -780 Descending Aus ATC (RADAR)
07:36AM -31.9579 115.9600 14° North 134 154 100 -720 Descending Aus ATC (RADAR)